sensor_id;sensor_type;location;lat;lon;timestamp;pressure;altitude;pressure_sealevel;temperature;humidity
50518;BME280;37075;44.084;2.962;2023-07-20T00:00:49;97797.25;;;17.52;53.39
50518;BME280;37075;44.084;2.962;2023-07-20T00:03:38;97796.44;;;17.48;56.33
50518;BME280;37075;44.084;2.962;2023-07-20T00:06:24;97796.81;;;17.46;53.13
50518;BME280;37075;44.084;2.962;2023-07-20T00:09:12;97800.28;;;17.43;53.54
50518;BME280;37075;44.084;2.962;2023-07-20T00:11:58;97795.91;;;17.39;53.20
50518;BME280;37075;44.084;2.962;2023-07-20T00:14:46;97790.72;;;17.34;54.31
50518;BME280;37075;44.084;2.962;2023-07-20T00:17:32;97778.88;;;17.30;53.90
50518;BME280;37075;44.084;2.962;2023-07-20T00:20:18;97787.09;;;17.26;54.54
50518;BME280;37075;44.084;2.962;2023-07-20T00:23:04;97787.06;;;17.22;53.69
50518;BME280;37075;44.084;2.962;2023-07-20T00:25:50;97774.41;;;17.18;54.57
50518;BME280;37075;44.084;2.962;2023-07-20T00:28:36;97780.66;;;17.15;54.42
50518;BME280;37075;44.084;2.962;2023-07-20T00:31:23;97775.09;;;17.11;53.80
50518;BME280;37075;44.084;2.962;2023-07-20T00:34:09;97773.47;;;17.07;54.19
50518;BME280;37075;44.084;2.962;2023-07-20T00:36:55;97773.03;;;17.01;55.53
50518;BME280;37075;44.084;2.962;2023-07-20T00:39:41;97771.81;;;16.99;54.73
50518;BME280;37075;44.084;2.962;2023-07-20T00:42:27;97766.25;;;16.95;54.90
50518;BME280;37075;44.084;2.962;2023-07-20T00:45:13;97762.63;;;16.91;54.80
50518;BME280;37075;44.084;2.962;2023-07-20T00:48:00;97773.25;;;16.89;54.86
50518;BME280;37075;44.084;2.962;2023-07-20T00:50:46;97770.81;;;16.84;55.88
50518;BME280;37075;44.084;2.962;2023-07-20T00:53:33;97779.03;;;16.80;55.22
50518;BME280;37075;44.084;2.962;2023-07-20T00:56:19;97781.38;;;16.78;55.34
50518;BME280;37075;44.084;2.962;2023-07-20T00:59:05;97779.75;;;16.74;55.60
50518;BME280;37075;44.084;2.962;2023-07-20T01:01:53;97781.22;;;16.68;57.04
50518;BME280;37075;44.084;2.962;2023-07-20T01:04:40;97779.97;;;16.65;56.71
50518;BME280;37075;44.084;2.962;2023-07-20T01:07:26;97779.91;;;16.61;57.09
50518;BME280;37075;44.084;2.962;2023-07-20T01:10:18;97773.56;;;16.57;57.30
50518;BME280;37075;44.084;2.962;2023-07-20T01:13:06;97782.19;;;16.56;56.27
50518;BME280;37075;44.084;2.962;2023-07-20T01:15:53;97775.84;;;16.52;57.49
50518;BME280;37075;44.084;2.962;2023-07-20T01:18:39;97775.81;;;16.48;57.43
50518;BME280;37075;44.084;2.962;2023-07-20T01:21:28;97773.41;;;16.47;57.00
50518;BME280;37075;44.084;2.962;2023-07-20T01:24:30;97773.38;;;16.43;57.28
50518;BME280;37075;44.084;2.962;2023-07-20T01:27:36;97766.66;;;16.41;57.33
50518;BME280;37075;44.084;2.962;2023-07-20T01:30:34;97762.19;;;16.32;59.13
50518;BME280;37075;44.084;2.962;2023-07-20T01:33:26;97774.34;;;16.31;60.57
50518;BME280;37075;44.084;2.962;2023-07-20T01:36:13;97770.81;;;16.31;58.82
50518;BME280;37075;44.084;2.962;2023-07-20T01:39:01;97766.06;;;16.28;58.33
50518;BME280;37075;44.084;2.962;2023-07-20T01:41:49;97758.16;;;16.26;58.06
50518;BME280;37075;44.084;2.962;2023-07-20T01:44:36;97758.13;;;16.23;58.40
50518;BME280;37075;44.084;2.962;2023-07-20T01:47:22;97756.53;;;16.22;58.03
50518;BME280;37075;44.084;2.962;2023-07-20T01:50:10;97754.94;;;16.21;58.05
50518;BME280;37075;44.084;2.962;2023-07-20T01:52:55;97756.09;;;16.20;58.07
50518;BME280;37075;44.084;2.962;2023-07-20T01:55:41;97758.00;;;16.16;58.80
50518;BME280;37075;44.084;2.962;2023-07-20T01:58:27;97759.09;;;16.11;58.72
50518;BME280;37075;44.084;2.962;2023-07-20T02:01:13;97755.13;;;16.09;59.15
50518;BME280;37075;44.084;2.962;2023-07-20T02:03:59;97751.53;;;16.04;60.31
50518;BME280;37075;44.084;2.962;2023-07-20T02:06:46;97755.81;;;16.02;59.33
50518;BME280;37075;44.084;2.962;2023-07-20T02:09:32;97753.44;;;16.00;58.91
50518;BME280;37075;44.084;2.962;2023-07-20T02:12:18;97753.38;;;15.97;59.24
50518;BME280;37075;44.084;2.962;2023-07-20T02:15:05;97747.81;;;15.93;58.88
50518;BME280;37075;44.084;2.962;2023-07-20T02:17:51;97749.34;;;15.91;59.39
50518;BME280;37075;44.084;2.962;2023-07-20T02:20:37;97739.09;;;15.88;59.44
50518;BME280;37075;44.084;2.962;2023-07-20T02:23:25;97740.22;;;15.87;60.17
50518;BME280;37075;44.084;2.962;2023-07-20T02:26:11;97735.88;;;15.86;59.34
50518;BME280;37075;44.084;2.962;2023-07-20T02:28:56;97740.16;;;15.83;59.33
50518;BME280;37075;44.084;2.962;2023-07-20T02:31:42;97738.94;;;15.81;59.78
50518;BME280;37075;44.084;2.962;2023-07-20T02:34:28;97737.34;;;15.80;59.27
50518;BME280;37075;44.084;2.962;2023-07-20T02:37:15;97738.09;;;15.77;59.15
50518;BME280;37075;44.084;2.962;2023-07-20T02:40:03;97735.28;;;15.73;59.55
50518;BME280;37075;44.084;2.962;2023-07-20T02:42:50;97740.38;;;15.71;60.06
50518;BME280;37075;44.084;2.962;2023-07-20T02:45:39;97736.41;;;15.68;60.08
50518;BME280;37075;44.084;2.962;2023-07-20T02:48:25;97731.63;;;15.65;62.30
50518;BME280;37075;44.084;2.962;2023-07-20T02:51:11;97729.69;;;15.66;60.54
50518;BME280;37075;44.084;2.962;2023-07-20T02:53:57;97721.00;;;15.64;60.63
50518;BME280;37075;44.084;2.962;2023-07-20T02:56:44;97718.63;;;15.62;60.66
50518;BME280;37075;44.084;2.962;2023-07-20T02:59:30;97716.56;;;15.59;60.51
50518;BME280;37075;44.084;2.962;2023-07-20T03:02:16;97723.94;;;15.55;60.88
50518;BME280;37075;44.084;2.962;2023-07-20T03:05:02;97716.44;;;15.52;61.04
50518;BME280;37075;44.084;2.962;2023-07-20T03:07:50;97719.13;;;15.49;61.12
50518;BME280;37075;44.084;2.962;2023-07-20T03:10:38;97713.56;;;15.45;62.19
50518;BME280;37075;44.084;2.962;2023-07-20T03:13:25;97716.25;;;15.41;62.35
50518;BME280;37075;44.084;2.962;2023-07-20T03:16:12;97718.56;;;15.39;61.89
50518;BME280;37075;44.084;2.962;2023-07-20T03:19:00;97720.91;;;15.37;61.47
50518;BME280;37075;44.084;2.962;2023-07-20T03:21:46;97719.63;;;15.35;61.66
50518;BME280;37075;44.084;2.962;2023-07-20T03:24:32;97721.16;;;15.32;61.30
50518;BME280;37075;44.084;2.962;2023-07-20T03:27:18;97719.16;;;15.29;61.42
50518;BME280;37075;44.084;2.962;2023-07-20T03:30:07;97715.97;;;15.27;62.08
50518;BME280;37075;44.084;2.962;2023-07-20T03:32:54;97717.88;;;15.23;62.60
50518;BME280;37075;44.084;2.962;2023-07-20T03:35:42;97722.13;;;15.21;61.78
50518;BME280;37075;44.084;2.962;2023-07-20T03:38:28;97718.16;;;15.18;61.91
50518;BME280;37075;44.084;2.962;2023-07-20T03:41:14;97713.41;;;15.15;61.88
50518;BME280;37075;44.084;2.962;2023-07-20T03:44:01;97720.06;;;15.14;62.51
50518;BME280;37075;44.084;2.962;2023-07-20T03:46:48;97711.38;;;15.12;62.69
50518;BME280;37075;44.084;2.962;2023-07-20T03:49:34;97714.84;;;15.09;62.46
50518;BME280;37075;44.084;2.962;2023-07-20T03:52:20;97714.84;;;15.09;61.90
50518;BME280;37075;44.084;2.962;2023-07-20T03:55:06;97710.06;;;15.06;61.90
50518;BME280;37075;44.084;2.962;2023-07-20T03:57:53;97712.38;;;15.04;61.86
50518;BME280;37075;44.084;2.962;2023-07-20T04:00:39;97714.69;;;15.02;61.90
50518;BME280;37075;44.084;2.962;2023-07-20T04:03:26;97706.81;;;15.00;61.82
50518;BME280;37075;44.084;2.962;2023-07-20T04:06:12;97705.16;;;14.96;62.19
50518;BME280;37075;44.084;2.962;2023-07-20T04:08:59;97715.72;;;14.94;62.21
50518;BME280;37075;44.084;2.962;2023-07-20T04:11:45;97718.84;;;14.92;62.22
50518;BME280;37075;44.084;2.962;2023-07-20T04:14:31;97727.44;;;14.91;61.82
50518;BME280;37075;44.084;2.962;2023-07-20T04:17:17;97724.25;;;14.89;62.01
50518;BME280;37075;44.084;2.962;2023-07-20T04:20:05;97720.28;;;14.86;62.46
50518;BME280;37075;44.084;2.962;2023-07-20T04:22:51;97720.97;;;14.83;62.48
50518;BME280;37075;44.084;2.962;2023-07-20T04:25:39;97730.38;;;14.82;62.44
50518;BME280;37075;44.084;2.962;2023-07-20T04:28:25;97723.66;;;14.79;62.68
50518;BME280;37075;44.084;2.962;2023-07-20T04:31:11;97730.31;;;14.78;63.48
50518;BME280;37075;44.084;2.962;2023-07-20T04:33:57;97732.25;;;14.78;62.79
50518;BME280;37075;44.084;2.962;2023-07-20T04:36:44;97727.94;;;14.77;62.78
50518;BME280;37075;44.084;2.962;2023-07-20T04:39:30;97718.91;;;14.76;63.00
50518;BME280;37075;44.084;2.962;2023-07-20T04:42:19;97725.97;;;14.77;63.10
50518;BME280;37075;44.084;2.962;2023-07-20T04:45:05;97723.22;;;14.77;63.15
50518;BME280;37075;44.084;2.962;2023-07-20T04:47:51;97715.00;;;14.77;62.93
50518;BME280;37075;44.084;2.962;2023-07-20T04:50:38;97720.13;;;14.79;63.50
50518;BME280;37075;44.084;2.962;2023-07-20T04:53:25;97717.00;;;14.80;63.82
50518;BME280;37075;44.084;2.962;2023-07-20T04:56:11;97709.56;;;14.81;63.25
50518;BME280;37075;44.084;2.962;2023-07-20T04:58:57;97707.97;;;14.80;64.62
50518;BME280;37075;44.084;2.962;2023-07-20T05:01:43;97712.69;;;14.79;64.29
50518;BME280;37075;44.084;2.962;2023-07-20T05:04:29;97715.84;;;14.81;63.65
50518;BME280;37075;44.084;2.962;2023-07-20T05:07:15;97710.81;;;14.84;63.77
50518;BME280;37075;44.084;2.962;2023-07-20T05:10:03;97708.94;;;14.88;63.56
50518;BME280;37075;44.084;2.962;2023-07-20T05:12:49;97707.41;;;14.90;63.91
50518;BME280;37075;44.084;2.962;2023-07-20T05:15:35;97711.03;;;14.94;63.95
50518;BME280;37075;44.084;2.962;2023-07-20T05:18:22;97705.16;;;14.96;65.22
50518;BME280;37075;44.084;2.962;2023-07-20T05:21:09;97705.25;;;14.99;64.40
50518;BME280;37075;44.084;2.962;2023-07-20T05:23:55;97704.16;;;15.04;64.18
50518;BME280;37075;44.084;2.962;2023-07-20T05:26:43;97702.25;;;15.08;64.37
50518;BME280;37075;44.084;2.962;2023-07-20T05:29:28;97701.56;;;15.11;64.58
50518;BME280;37075;44.084;2.962;2023-07-20T05:32:14;97701.25;;;15.16;65.25
50518;BME280;37075;44.084;2.962;2023-07-20T05:35:00;97706.81;;;15.20;65.65
50518;BME280;37075;44.084;2.962;2023-07-20T05:37:46;97706.50;;;15.25;66.90
50518;BME280;37075;44.084;2.962;2023-07-20T05:40:32;97707.38;;;15.29;66.68
50518;BME280;37075;44.084;2.962;2023-07-20T05:43:20;97704.78;;;15.36;65.88
50518;BME280;37075;44.084;2.962;2023-07-20T05:46:05;97702.88;;;15.40;67.23
50518;BME280;37075;44.084;2.962;2023-07-20T05:48:51;97696.69;;;15.47;66.65
50518;BME280;37075;44.084;2.962;2023-07-20T05:51:37;97702.69;;;15.52;65.13
50518;BME280;37075;44.084;2.962;2023-07-20T05:54:23;97698.13;;;15.60;65.03
50518;BME280;37075;44.084;2.962;2023-07-20T05:57:09;97706.50;;;15.67;65.19
50518;BME280;37075;44.084;2.962;2023-07-20T05:59:57;97706.25;;;15.76;64.89
50518;BME280;37075;44.084;2.962;2023-07-20T06:02:43;97707.97;;;15.84;65.09
50518;BME280;37075;44.084;2.962;2023-07-20T06:05:29;97697.88;;;15.91;65.11
50518;BME280;37075;44.084;2.962;2023-07-20T06:08:15;97697.19;;;15.98;65.70
50518;BME280;37075;44.084;2.962;2023-07-20T06:11:00;97705.19;;;16.07;65.66
50518;BME280;37075;44.084;2.962;2023-07-20T06:13:46;97698.19;;;16.13;65.25
50518;BME280;37075;44.084;2.962;2023-07-20T06:16:34;97694.41;;;16.21;65.16
50518;BME280;37075;44.084;2.962;2023-07-20T06:19:20;97693.31;;;16.29;64.94
50518;BME280;37075;44.084;2.962;2023-07-20T06:22:07;97695.78;;;16.38;64.86
50518;BME280;37075;44.084;2.962;2023-07-20T06:24:53;97693.13;;;16.41;67.79
50518;BME280;37075;44.084;2.962;2023-07-20T06:27:38;97687.38;;;16.53;65.11
50518;BME280;37075;44.084;2.962;2023-07-20T06:30:24;97693.38;;;16.62;65.57
50518;BME280;37075;44.084;2.962;2023-07-20T06:33:11;97692.34;;;16.71;65.44
50518;BME280;37075;44.084;2.962;2023-07-20T06:35:57;97690.06;;;16.76;66.34
50518;BME280;37075;44.084;2.962;2023-07-20T06:38:43;97694.91;;;16.86;64.53
50518;BME280;37075;44.084;2.962;2023-07-20T06:41:29;97688.75;;;16.97;64.55
50518;BME280;37075;44.084;2.962;2023-07-20T06:44:15;97690.78;;;17.03;66.39
50518;BME280;37075;44.084;2.962;2023-07-20T06:47:01;97687.72;;;17.12;64.63
50518;BME280;37075;44.084;2.962;2023-07-20T06:49:49;97681.91;;;17.20;64.03
50518;BME280;37075;44.084;2.962;2023-07-20T06:52:35;97688.31;;;17.32;63.70
50518;BME280;37075;44.084;2.962;2023-07-20T06:55:21;97686.84;;;17.41;64.04
50518;BME280;37075;44.084;2.962;2023-07-20T06:58:07;97691.66;;;17.51;63.41
50518;BME280;37075;44.084;2.962;2023-07-20T07:00:54;97680.34;;;17.64;63.84
50518;BME280;37075;44.084;2.962;2023-07-20T07:03:39;97687.97;;;17.74;63.64
50518;BME280;37075;44.084;2.962;2023-07-20T07:06:27;97686.06;;;17.85;63.25
50518;BME280;37075;44.084;2.962;2023-07-20T07:09:13;97683.41;;;17.96;65.03
50518;BME280;37075;44.084;2.962;2023-07-20T07:11:59;97691.75;;;18.06;64.47
50518;BME280;37075;44.084;2.962;2023-07-20T07:14:44;97683.94;;;18.19;63.30
50518;BME280;37075;44.084;2.962;2023-07-20T07:17:30;97682.81;;;18.24;64.00
50518;BME280;37075;44.084;2.962;2023-07-20T07:20:17;97694.72;;;18.38;63.48
50518;BME280;37075;44.084;2.962;2023-07-20T07:23:04;97690.81;;;18.46;62.97
50518;BME280;37075;44.084;2.962;2023-07-20T07:25:50;97683.81;;;18.60;62.10
50518;BME280;37075;44.084;2.962;2023-07-20T07:28:36;97681.91;;;18.71;61.82
50518;BME280;37075;44.084;2.962;2023-07-20T07:31:22;97685.13;;;18.80;62.40
50518;BME280;37075;44.084;2.962;2023-07-20T07:34:08;97674.50;;;18.93;61.46
50518;BME280;37075;44.084;2.962;2023-07-20T07:36:54;97677.31;;;19.03;61.09
50518;BME280;37075;44.084;2.962;2023-07-20T07:39:41;97672.59;;;19.15;61.36
50518;BME280;37075;44.084;2.962;2023-07-20T07:42:28;97662.72;;;19.24;60.85
50518;BME280;37075;44.084;2.962;2023-07-20T07:45:14;97658.03;;;19.35;60.50
50518;BME280;37075;44.084;2.962;2023-07-20T07:48:01;97656.84;;;19.47;60.23
50518;BME280;37075;44.084;2.962;2023-07-20T07:50:47;97658.88;;;19.57;60.14
50518;BME280;37075;44.084;2.962;2023-07-20T07:53:34;97654.13;;;19.68;60.07
50518;BME280;37075;44.084;2.962;2023-07-20T07:56:23;97648.22;;;19.81;60.01
50518;BME280;37075;44.084;2.962;2023-07-20T07:59:08;97646.22;;;19.92;59.44
50518;BME280;37075;44.084;2.962;2023-07-20T08:01:54;97643.41;;;20.02;59.32
50518;BME280;37075;44.084;2.962;2023-07-20T08:04:41;97643.03;;;20.11;59.09
50518;BME280;37075;44.084;2.962;2023-07-20T08:07:27;97635.47;;;20.22;59.46
50518;BME280;37075;44.084;2.962;2023-07-20T08:10:13;97642.19;;;20.36;59.50
50518;BME280;37075;44.084;2.962;2023-07-20T08:13:00;97632.28;;;20.49;59.18
50518;BME280;37075;44.084;2.962;2023-07-20T08:15:48;97630.66;;;20.62;58.40
50518;BME280;37075;44.084;2.962;2023-07-20T08:18:34;97632.19;;;20.74;58.11
50518;BME280;37075;44.084;2.962;2023-07-20T08:21:20;97629.38;;;20.84;58.64
50518;BME280;37075;44.084;2.962;2023-07-20T08:24:06;97626.50;;;20.99;58.07
50518;BME280;37075;44.084;2.962;2023-07-20T08:26:52;97623.28;;;21.11;57.42
50518;BME280;37075;44.084;2.962;2023-07-20T08:29:41;97618.06;;;21.23;57.34
50518;BME280;37075;44.084;2.962;2023-07-20T08:32:26;97611.66;;;21.34;56.78
50518;BME280;37075;44.084;2.962;2023-07-20T08:35:13;97614.41;;;21.41;56.20
50518;BME280;37075;44.084;2.962;2023-07-20T08:37:59;97612.31;;;21.52;56.64
50518;BME280;37075;44.084;2.962;2023-07-20T08:40:45;97617.44;;;21.61;55.63
50518;BME280;37075;44.084;2.962;2023-07-20T08:43:31;97615.34;;;21.72;54.68
50518;BME280;37075;44.084;2.962;2023-07-20T08:46:20;97608.06;;;21.85;54.80
50518;BME280;37075;44.084;2.962;2023-07-20T08:49:06;97607.56;;;21.97;54.96
50518;BME280;37075;44.084;2.962;2023-07-20T08:51:52;97605.13;;;22.06;55.31
50518;BME280;37075;44.084;2.962;2023-07-20T08:54:38;97597.09;;;22.15;53.79
50518;BME280;37075;44.084;2.962;2023-07-20T08:57:25;97599.72;;;22.30;54.21
50518;BME280;37075;44.084;2.962;2023-07-20T09:00:11;97596.41;;;22.42;53.99
50518;BME280;37075;44.084;2.962;2023-07-20T09:03:00;97589.88;;;22.56;53.41
50518;BME280;37075;44.084;2.962;2023-07-20T09:05:48;97583.41;;;22.66;52.02
50518;BME280;37075;44.084;2.962;2023-07-20T09:08:37;97582.44;;;22.80;52.33
50518;BME280;37075;44.084;2.962;2023-07-20T09:11:23;97580.72;;;22.93;52.59
50518;BME280;37075;44.084;2.962;2023-07-20T09:14:09;97580.91;;;23.05;51.82
50518;BME280;37075;44.084;2.962;2023-07-20T09:16:55;97574.78;;;23.18;51.70
50518;BME280;37075;44.084;2.962;2023-07-20T09:19:49;97566.25;;;23.28;51.47
50518;BME280;37075;44.084;2.962;2023-07-20T09:22:35;97569.66;;;23.39;50.81
50518;BME280;37075;44.084;2.962;2023-07-20T09:25:24;97578.63;;;23.51;51.20
50518;BME280;37075;44.084;2.962;2023-07-20T09:28:10;97563.34;;;23.62;51.17
50518;BME280;37075;44.084;2.962;2023-07-20T09:30:56;97566.66;;;23.77;50.58
50518;BME280;37075;44.084;2.962;2023-07-20T09:33:43;97560.13;;;23.87;50.22
50518;BME280;37075;44.084;2.962;2023-07-20T09:36:31;97566.28;;;23.98;49.69
50518;BME280;37075;44.084;2.962;2023-07-20T09:39:18;97566.00;;;24.13;48.69
50518;BME280;37075;44.084;2.962;2023-07-20T09:42:05;97561.38;;;24.26;49.39
50518;BME280;37075;44.084;2.962;2023-07-20T09:44:52;97558.75;;;24.39;48.41
50518;BME280;37075;44.084;2.962;2023-07-20T09:47:38;97554.91;;;24.52;48.26
50518;BME280;37075;44.084;2.962;2023-07-20T09:50:25;97550.22;;;24.66;48.75
50518;BME280;37075;44.084;2.962;2023-07-20T09:53:13;97550.38;;;24.78;48.26
50518;BME280;37075;44.084;2.962;2023-07-20T09:55:59;97545.25;;;24.93;48.60
50518;BME280;37075;44.084;2.962;2023-07-20T09:58:45;97531.78;;;25.08;48.07
50518;BME280;37075;44.084;2.962;2023-07-20T10:01:31;97532.66;;;25.21;46.49
50518;BME280;37075;44.084;2.962;2023-07-20T10:04:18;97534.66;;;25.20;44.54
50518;BME280;37075;44.084;2.962;2023-07-20T10:07:05;97522.81;;;25.33;44.71
50518;BME280;37075;44.084;2.962;2023-07-20T10:09:57;97520.81;;;25.33;44.36
50518;BME280;37075;44.084;2.962;2023-07-20T10:12:47;97518.53;;;25.44;43.94
50518;BME280;37075;44.084;2.962;2023-07-20T10:15:35;97523.09;;;25.55;43.69
50518;BME280;37075;44.084;2.962;2023-07-20T10:18:22;97516.34;;;25.68;43.68
50518;BME280;37075;44.084;2.962;2023-07-20T10:21:13;97516.09;;;25.79;43.88
50518;BME280;37075;44.084;2.962;2023-07-20T10:24:00;97505.31;;;25.94;44.33
50518;BME280;37075;44.084;2.962;2023-07-20T10:26:48;97507.38;;;26.06;42.99
50518;BME280;37075;44.084;2.962;2023-07-20T10:29:34;97496.09;;;26.09;42.00
50518;BME280;37075;44.084;2.962;2023-07-20T10:32:20;97499.78;;;26.06;41.74
50518;BME280;37075;44.084;2.962;2023-07-20T10:35:11;97490.09;;;26.24;42.14
50518;BME280;37075;44.084;2.962;2023-07-20T10:38:00;97483.66;;;26.39;41.74
50518;BME280;37075;44.084;2.962;2023-07-20T10:40:53;97479.22;;;26.55;42.07
50518;BME280;37075;44.084;2.962;2023-07-20T10:43:43;97478.13;;;26.65;41.52
50518;BME280;37075;44.084;2.962;2023-07-20T10:49:39;97477.22;;;26.93;41.07
50518;BME280;37075;44.084;2.962;2023-07-20T10:52:42;97475.25;;;27.07;40.77
50518;BME280;37075;44.084;2.962;2023-07-20T10:55:28;97473.22;;;27.07;39.69
50518;BME280;37075;44.084;2.962;2023-07-20T10:58:14;97469.16;;;27.21;39.66
50518;BME280;37075;44.084;2.962;2023-07-20T11:01:02;97473.66;;;27.18;37.98
50518;BME280;37075;44.084;2.962;2023-07-20T11:03:49;97471.50;;;27.22;38.67
50518;BME280;37075;44.084;2.962;2023-07-20T11:06:35;97467.09;;;27.47;39.21
50518;BME280;37075;44.084;2.962;2023-07-20T11:09:23;97463.84;;;27.48;37.57
50518;BME280;37075;44.084;2.962;2023-07-20T11:12:10;97461.81;;;27.49;37.96
50518;BME280;37075;44.084;2.962;2023-07-20T11:14:57;97462.47;;;27.66;37.56
50518;BME280;37075;44.084;2.962;2023-07-20T11:17:45;97458.31;;;27.70;38.03
50518;BME280;37075;44.084;2.962;2023-07-20T11:20:31;97449.31;;;27.75;37.77
50518;BME280;37075;44.084;2.962;2023-07-20T11:23:16;97449.28;;;27.88;37.71
50518;BME280;37075;44.084;2.962;2023-07-20T11:26:02;97446.97;;;27.95;36.99
50518;BME280;37075;44.084;2.962;2023-07-20T11:28:48;97445.22;;;28.11;37.48
50518;BME280;37075;44.084;2.962;2023-07-20T11:31:36;97440.28;;;28.15;36.24
50518;BME280;37075;44.084;2.962;2023-07-20T11:34:24;97440.41;;;28.11;36.08
50518;BME280;37075;44.084;2.962;2023-07-20T11:37:11;97437.25;;;28.31;35.89
50518;BME280;37075;44.084;2.962;2023-07-20T11:39:58;97435.94;;;28.45;36.36
50518;BME280;37075;44.084;2.962;2023-07-20T11:42:44;97425.78;;;28.38;35.07
50518;BME280;37075;44.084;2.962;2023-07-20T11:45:30;97419.78;;;28.58;35.71
50518;BME280;37075;44.084;2.962;2023-07-20T11:48:17;97416.44;;;28.72;35.54
50518;BME280;37075;44.084;2.962;2023-07-20T11:51:04;97409.88;;;28.75;35.04
50518;BME280;37075;44.084;2.962;2023-07-20T11:53:50;97411.31;;;28.80;34.24
50518;BME280;37075;44.084;2.962;2023-07-20T11:56:36;97410.44;;;28.92;35.14
50518;BME280;37075;44.084;2.962;2023-07-20T11:59:22;97406.78;;;28.82;34.54
50518;BME280;37075;44.084;2.962;2023-07-20T12:02:09;97406.41;;;28.93;34.12
50518;BME280;37075;44.084;2.962;2023-07-20T12:04:54;97399.84;;;29.05;33.62
50518;BME280;37075;44.084;2.962;2023-07-20T12:07:42;97401.25;;;29.01;34.88
50518;BME280;37075;44.084;2.962;2023-07-20T12:10:28;97389.56;;;29.02;33.94
50518;BME280;37075;44.084;2.962;2023-07-20T12:13:14;97384.44;;;29.19;33.56
50518;BME280;37075;44.084;2.962;2023-07-20T12:16:06;97380.06;;;29.27;33.52
50518;BME280;37075;44.084;2.962;2023-07-20T12:18:58;97381.16;;;29.30;32.64
50518;BME280;37075;44.084;2.962;2023-07-20T12:21:45;97376.19;;;29.43;33.69
50518;BME280;37075;44.084;2.962;2023-07-20T12:24:32;97369.81;;;29.52;31.91
50518;BME280;37075;44.084;2.962;2023-07-20T12:27:18;97361.53;;;29.66;31.56
50518;BME280;37075;44.084;2.962;2023-07-20T12:30:04;97355.28;;;29.62;31.21
50518;BME280;37075;44.084;2.962;2023-07-20T12:32:51;97354.97;;;29.69;31.78
50518;BME280;37075;44.084;2.962;2023-07-20T12:35:36;97349.13;;;29.91;31.84
50518;BME280;37075;44.084;2.962;2023-07-20T12:38:22;97337.59;;;29.98;31.66
50518;BME280;37075;44.084;2.962;2023-07-20T12:41:11;97347.41;;;30.12;31.52
50518;BME280;37075;44.084;2.962;2023-07-20T12:43:59;97327.34;;;30.28;31.39
50518;BME280;37075;44.084;2.962;2023-07-20T12:46:44;97330.59;;;30.36;32.01
50518;BME280;37075;44.084;2.962;2023-07-20T12:49:30;97331.31;;;30.55;31.40
50518;BME280;37075;44.084;2.962;2023-07-20T12:52:17;97317.66;;;30.72;31.41
50518;BME280;37075;44.084;2.962;2023-07-20T12:55:03;97312.97;;;30.59;29.59
50518;BME280;37075;44.084;2.962;2023-07-20T12:57:50;97308.00;;;30.54;28.89
50518;BME280;37075;44.084;2.962;2023-07-20T13:00:36;97305.78;;;30.58;28.63
50518;BME280;37075;44.084;2.962;2023-07-20T13:03:22;97303.41;;;30.66;29.41
50518;BME280;37075;44.084;2.962;2023-07-20T13:06:08;97299.78;;;30.75;28.97
50518;BME280;37075;44.084;2.962;2023-07-20T13:08:54;97295.81;;;31.05;29.24
50518;BME280;37075;44.084;2.962;2023-07-20T13:11:42;97298.44;;;31.47;29.66
50518;BME280;37075;44.084;2.962;2023-07-20T13:14:29;97293.06;;;32.03;29.45
50518;BME280;37075;44.084;2.962;2023-07-20T13:17:16;97289.44;;;32.67;28.63
50518;BME280;37075;44.084;2.962;2023-07-20T13:20:03;97280.84;;;33.17;26.31
50518;BME280;37075;44.084;2.962;2023-07-20T13:22:49;97276.19;;;34.12;24.43
50518;BME280;37075;44.084;2.962;2023-07-20T13:25:35;97273.63;;;34.88;23.37
50518;BME280;37075;44.084;2.962;2023-07-20T13:28:21;97262.81;;;35.79;23.64
50518;BME280;37075;44.084;2.962;2023-07-20T13:31:08;97263.38;;;36.34;21.72
50518;BME280;37075;44.084;2.962;2023-07-20T13:33:55;97270.56;;;36.57;20.91
50518;BME280;37075;44.084;2.962;2023-07-20T13:36:42;97257.44;;;37.18;20.80
50518;BME280;37075;44.084;2.962;2023-07-20T13:39:28;97251.78;;;37.59;19.52
50518;BME280;37075;44.084;2.962;2023-07-20T13:42:14;97249.75;;;38.79;20.06
50518;BME280;37075;44.084;2.962;2023-07-20T13:45:00;97243.78;;;39.21;18.97
50518;BME280;37075;44.084;2.962;2023-07-20T13:47:48;97242.41;;;39.65;17.15
50518;BME280;37075;44.084;2.962;2023-07-20T13:50:34;97238.31;;;40.24;17.34
50518;BME280;37075;44.084;2.962;2023-07-20T13:53:19;97235.63;;;41.11;17.30
50518;BME280;37075;44.084;2.962;2023-07-20T13:56:06;97239.47;;;41.27;16.04
50518;BME280;37075;44.084;2.962;2023-07-20T13:58:52;97225.88;;;40.93;15.25
50518;BME280;37075;44.084;2.962;2023-07-20T14:01:38;97226.00;;;41.48;15.53
50518;BME280;37075;44.084;2.962;2023-07-20T14:04:25;97229.25;;;41.86;14.65
50518;BME280;37075;44.084;2.962;2023-07-20T14:07:11;97224.75;;;42.61;13.79
50518;BME280;37075;44.084;2.962;2023-07-20T14:09:58;97211.66;;;43.68;14.82
50518;BME280;37075;44.084;2.962;2023-07-20T14:12:44;97214.66;;;42.96;13.85
50518;BME280;37075;44.084;2.962;2023-07-20T14:15:30;97208.31;;;42.62;14.04
50518;BME280;37075;44.084;2.962;2023-07-20T14:18:16;97203.94;;;42.97;13.76
50518;BME280;37075;44.084;2.962;2023-07-20T14:21:04;97198.44;;;43.14;12.68
50518;BME280;37075;44.084;2.962;2023-07-20T14:23:51;97205.81;;;44.12;13.46
50518;BME280;37075;44.084;2.962;2023-07-20T14:26:38;97201.94;;;43.87;12.78
50518;BME280;37075;44.084;2.962;2023-07-20T14:29:24;97207.91;;;44.35;12.89
50518;BME280;37075;44.084;2.962;2023-07-20T14:32:10;97201.16;;;43.79;12.13
50518;BME280;37075;44.084;2.962;2023-07-20T14:34:55;97194.44;;;44.68;12.32
50518;BME280;37075;44.084;2.962;2023-07-20T14:37:43;97196.72;;;44.77;12.21
50518;BME280;37075;44.084;2.962;2023-07-20T14:40:31;97195.34;;;45.41;12.18
50518;BME280;37075;44.084;2.962;2023-07-20T14:43:17;97187.47;;;46.24;12.14
50518;BME280;37075;44.084;2.962;2023-07-20T14:46:03;97198.13;;;46.38;11.33